createdAt,value
2018-02-23T00:01:10.488Z,99.86
2018-02-23T00:03:38.040Z,99.83
2018-02-23T00:06:05.611Z,99.73
2018-02-23T00:08:33.140Z,99.60
2018-02-23T00:11:00.637Z,99.50
2018-02-23T00:13:28.161Z,99.29
2018-02-23T00:15:55.690Z,99.08
2018-02-23T00:18:23.298Z,98.91
2018-02-23T00:20:50.789Z,98.80
2018-02-23T00:23:18.336Z,98.96
2018-02-23T00:25:45.894Z,98.92
2018-02-23T00:28:13.523Z,99.05
2018-02-23T00:30:41.058Z,98.71
2018-02-23T00:33:08.567Z,98.58
2018-02-23T00:35:36.081Z,98.56
2018-02-23T00:38:03.640Z,98.49
2018-02-23T00:40:31.123Z,98.54
2018-02-23T00:42:58.606Z,98.30
2018-02-23T00:45:26.513Z,98.17
2018-02-23T00:47:54.079Z,97.89
2018-02-23T00:50:21.608Z,97.80
2018-02-23T00:52:49.156Z,98.07
2018-02-23T00:55:16.696Z,97.87
2018-02-23T00:57:44.277Z,97.64
2018-02-23T01:00:11.824Z,97.29
2018-02-23T01:02:39.297Z,97.04
2018-02-23T01:05:06.820Z,97.01
2018-02-23T01:07:34.367Z,96.95
2018-02-23T01:10:01.906Z,97.19
2018-02-23T01:12:29.905Z,97.23
2018-02-23T01:14:57.424Z,97.59
2018-02-23T01:17:24.965Z,97.43
2018-02-23T01:19:52.461Z,97.64
2018-02-23T01:22:20.017Z,97.59
2018-02-23T01:24:47.562Z,97.71
2018-02-23T01:27:15.047Z,97.55
2018-02-23T01:29:42.582Z,97.51
2018-02-23T01:32:10.072Z,97.36
2018-02-23T01:34:37.593Z,97.36
2018-02-23T01:37:05.180Z,97.25
2018-02-23T01:39:32.712Z,96.83
2018-02-23T01:42:00.245Z,96.67
2018-02-23T01:44:27.810Z,96.08
2018-02-23T01:46:55.386Z,96.16
2018-02-23T01:49:22.915Z,95.82
2018-02-23T01:51:50.457Z,95.73
2018-02-23T01:54:18.044Z,95.34
2018-02-23T01:56:45.566Z,94.99
2018-02-23T01:59:13.082Z,94.80
2018-02-23T02:01:40.628Z,94.73
2018-02-23T02:04:08.144Z,94.66
2018-02-23T02:06:35.911Z,94.14
2018-02-23T02:09:03.424Z,93.80
2018-02-23T02:11:31.018Z,93.60
2018-02-23T02:13:58.681Z,93.46
2018-02-23T02:16:26.229Z,93.57
2018-02-23T02:18:53.760Z,93.28
2018-02-23T02:21:21.270Z,93.11
2018-02-23T02:23:48.821Z,93.01
2018-02-23T02:26:16.338Z,92.78
2018-02-23T02:28:43.835Z,92.84
2018-02-23T02:31:11.415Z,92.84
2018-02-23T02:33:38.951Z,92.70
2018-02-23T02:36:06.469Z,92.25
2018-02-23T02:38:33.980Z,91.67
2018-02-23T02:41:01.546Z,91.85
2018-02-23T02:43:29.106Z,91.70
2018-02-23T02:45:56.612Z,91.58
2018-02-23T02:48:24.185Z,91.45
2018-02-23T02:50:51.744Z,91.45
2018-02-23T02:53:19.237Z,91.25
2018-02-23T02:55:46.757Z,90.95
2018-02-23T02:58:14.302Z,90.53
2018-02-23T03:00:41.847Z,90.46
2018-02-23T03:03:09.432Z,90.35
2018-02-23T03:05:37.155Z,90.34
2018-02-23T03:08:04.674Z,90.36
2018-02-23T03:10:32.234Z,90.48
2018-02-23T03:12:59.790Z,90.58
2018-02-23T03:15:27.298Z,90.49
2018-02-23T03:17:54.798Z,90.38
2018-02-23T03:20:25.295Z,90.44
2018-02-23T03:22:52.798Z,90.33
2018-02-23T03:25:20.454Z,90.42
2018-02-23T03:27:48.049Z,90.34
2018-02-23T03:30:15.682Z,90.04
2018-02-23T03:32:43.254Z,90.04
2018-02-23T03:35:10.790Z,89.96
2018-02-23T03:37:38.371Z,89.56
2018-02-23T03:40:05.945Z,89.46
2018-02-23T03:42:33.450Z,89.38
2018-02-23T03:45:01.006Z,89.16
2018-02-23T03:47:28.527Z,89.38
2018-02-23T03:49:56.100Z,89.71
2018-02-23T03:52:23.645Z,89.91
2018-02-23T03:54:51.166Z,90.37
2018-02-23T03:57:18.679Z,90.74
2018-02-23T03:59:46.178Z,91.01
2018-02-23T04:02:13.698Z,91.26
2018-02-23T04:04:41.196Z,91.26
2018-02-23T04:07:08.702Z,91.16
2018-02-23T04:09:36.258Z,91.01
2018-02-23T04:12:03.830Z,90.77
2018-02-23T04:14:31.401Z,90.69
2018-02-23T04:16:59.004Z,90.72
2018-02-23T04:19:27.421Z,90.52
2018-02-23T04:21:54.930Z,90.44
2018-02-23T04:24:22.436Z,90.14
2018-02-23T04:26:49.953Z,90.13
2018-02-23T04:29:17.457Z,90.14
2018-02-23T04:31:45.021Z,90.03
2018-02-23T04:34:12.562Z,89.76
2018-02-23T04:36:40.097Z,89.64
2018-02-23T04:39:07.605Z,89.49
2018-02-23T04:41:36.628Z,89.29
2018-02-23T04:44:04.166Z,89.24
2018-02-23T04:46:31.667Z,89.24
2018-02-23T04:48:59.232Z,89.25
2018-02-23T04:51:26.730Z,89.28
2018-02-23T04:53:54.260Z,89.76
2018-02-23T04:56:21.822Z,89.79
2018-02-23T04:58:49.414Z,90.02
2018-02-23T05:01:16.932Z,90.09
2018-02-23T05:03:45.313Z,90.15
2018-02-23T05:06:12.824Z,90.40
2018-02-23T05:08:40.369Z,90.75
2018-02-23T05:11:07.878Z,91.05
2018-02-23T05:13:35.479Z,91.20
2018-02-23T05:16:02.982Z,91.69
2018-02-23T05:18:30.500Z,91.83
2018-02-23T05:20:57.993Z,92.08
2018-02-23T05:23:25.539Z,92.25
2018-02-23T05:25:53.083Z,92.57
2018-02-23T05:28:20.640Z,92.04
2018-02-23T05:30:48.200Z,92.03
2018-02-23T05:33:15.715Z,91.73
2018-02-23T05:35:43.319Z,91.32
2018-02-23T05:38:10.878Z,91.26
2018-02-23T05:40:38.369Z,91.48
2018-02-23T05:43:05.853Z,90.91
2018-02-23T05:45:33.375Z,90.91
2018-02-23T05:48:00.925Z,90.51
2018-02-23T05:50:28.504Z,90.32
2018-02-23T05:52:56.038Z,89.73
2018-02-23T05:55:23.570Z,89.90
2018-02-23T05:57:51.129Z,89.30
2018-02-23T06:00:18.683Z,89.24
2018-02-23T06:02:46.281Z,89.18
2018-02-23T06:05:13.836Z,88.75
2018-02-23T06:07:41.391Z,88.62
2018-02-23T06:10:08.928Z,88.55
2018-02-23T06:12:36.426Z,89.68
2018-02-23T06:15:04.090Z,88.99
2018-02-23T06:17:37.135Z,88.36
2018-02-23T06:20:08.619Z,88.54
2018-02-23T06:22:36.147Z,88.54
2018-02-23T06:25:03.707Z,88.01
2018-02-23T06:27:31.212Z,87.86
2018-02-23T06:29:58.735Z,88.26
2018-02-23T06:32:26.233Z,89.21
2018-02-23T06:34:53.814Z,89.24
2018-02-23T06:37:22.090Z,89.36
2018-02-23T06:39:49.632Z,88.87
2018-02-23T06:42:17.168Z,88.37
2018-02-23T06:44:44.732Z,88.43
2018-02-23T06:47:12.255Z,88.87
2018-02-23T06:49:39.757Z,88.34
2018-02-23T06:52:07.316Z,88.31
2018-02-23T06:54:34.880Z,88.72
2018-02-23T06:57:02.424Z,88.15
2018-02-23T06:59:29.953Z,87.79
2018-02-23T07:01:58.406Z,87.67
2018-02-23T07:04:25.983Z,87.85
2018-02-23T07:06:53.517Z,88.04
2018-02-23T07:09:21.077Z,88.28
2018-02-23T07:11:48.706Z,88.49
2018-02-23T07:14:16.295Z,88.37
2018-02-23T07:16:43.807Z,88.88
2018-02-23T07:19:11.353Z,88.84
2018-02-23T07:21:38.912Z,88.64
2018-02-23T07:24:06.441Z,88.52
2018-02-23T07:26:34.580Z,88.37
2018-02-23T07:29:02.171Z,87.73
2018-02-23T07:31:29.748Z,87.67
2018-02-23T07:33:57.289Z,87.30
2018-02-23T07:36:24.846Z,87.25
2018-02-23T07:38:52.368Z,87.05
2018-02-23T07:41:19.921Z,87.87
2018-02-23T07:43:47.439Z,87.81
2018-02-23T07:46:14.971Z,87.66
2018-02-23T07:48:42.556Z,88.45
2018-02-23T07:51:19.973Z,88.14
2018-02-23T07:53:47.515Z,88.02
2018-02-23T07:56:15.055Z,88.36
2018-02-23T07:58:42.636Z,88.12
2018-02-23T08:01:10.193Z,88.19
2018-02-23T08:03:37.792Z,87.59
2018-02-23T08:06:05.313Z,86.97
2018-02-23T08:08:32.879Z,86.29
2018-02-23T08:11:00.407Z,84.79
2018-02-23T08:13:27.950Z,84.33
2018-02-23T08:15:55.480Z,82.68
2018-02-23T08:18:23.033Z,81.82
2018-02-23T08:20:50.611Z,80.78
2018-02-23T08:23:18.218Z,81.05
2018-02-23T08:25:45.795Z,78.96
2018-02-23T08:28:13.354Z,80.49
2018-02-23T08:30:40.956Z,80.45
2018-02-23T08:33:08.542Z,79.33
2018-02-23T08:35:36.103Z,77.92
2018-02-23T08:38:03.652Z,76.99
2018-02-23T08:40:31.153Z,75.10
2018-02-23T08:42:58.721Z,72.53
2018-02-23T08:45:26.270Z,78.32
2018-02-23T08:47:53.826Z,79.97
2018-02-23T08:50:21.401Z,77.83
2018-02-23T08:52:48.946Z,79.95
2018-02-23T08:55:16.482Z,78.51
2018-02-23T08:57:44.027Z,74.21
2018-02-23T09:00:20.053Z,73.33
2018-02-23T09:02:47.608Z,76.15
2018-02-23T09:05:15.136Z,76.47
2018-02-23T09:07:42.676Z,73.19
2018-02-23T09:10:10.190Z,75.47
2018-02-23T09:12:37.825Z,72.24
2018-02-23T09:15:05.323Z,73.33
2018-02-23T09:17:32.901Z,77.48
2018-02-23T09:20:00.445Z,77.62
2018-02-23T09:22:28.003Z,74.79
2018-02-23T09:24:55.516Z,74.04
2018-02-23T09:27:23.004Z,75.75
2018-02-23T09:29:50.532Z,71.67
2018-02-23T09:32:29.765Z,69.20
2018-02-23T09:34:57.292Z,68.79
2018-02-23T09:37:24.812Z,71.14
2018-02-23T09:39:52.358Z,71.99
2018-02-23T09:42:19.950Z,69.45
2018-02-23T09:44:47.471Z,71.93
2018-02-23T09:47:14.962Z,69.26
2018-02-23T09:49:42.490Z,68.67
2018-02-23T09:52:10.061Z,73.84
2018-02-23T09:54:37.640Z,71.72
2018-02-23T09:57:05.234Z,74.34
2018-02-23T09:59:32.769Z,73.50
2018-02-23T10:02:00.273Z,71.49
2018-02-23T10:04:27.822Z,74.59
2018-02-23T10:06:55.385Z,75.03
2018-02-23T10:09:22.924Z,73.37
2018-02-23T10:11:50.500Z,73.04
2018-02-23T10:14:17.998Z,73.75
2018-02-23T10:16:45.627Z,73.39
2018-02-23T10:19:13.248Z,73.03
2018-02-23T10:21:40.774Z,73.62
2018-02-23T10:24:08.338Z,76.33
2018-02-23T10:26:35.866Z,76.52
2018-02-23T10:29:03.476Z,75.72
2018-02-23T10:31:31.011Z,76.05
2018-02-23T10:33:58.554Z,76.14
2018-02-23T10:36:27.951Z,74.90
2018-02-23T10:38:55.502Z,74.66
2018-02-23T10:41:23.001Z,75.67
2018-02-23T10:43:50.555Z,76.64
2018-02-23T10:46:18.133Z,76.64
2018-02-23T10:48:45.716Z,75.65
2018-02-23T10:51:13.214Z,75.20
2018-02-23T10:53:40.708Z,75.54
2018-02-23T10:56:08.465Z,74.79
2018-02-23T10:58:36.142Z,75.28
2018-02-23T11:01:03.797Z,75.17
2018-02-23T11:03:33.203Z,77.22
2018-02-23T11:06:00.788Z,77.80
2018-02-23T11:08:28.299Z,77.63
2018-02-23T11:10:55.798Z,77.72
2018-02-23T11:13:23.331Z,76.75
2018-02-23T11:15:50.882Z,76.13
2018-02-23T11:18:18.436Z,74.94
2018-02-23T11:20:45.975Z,74.66
2018-02-23T11:23:13.550Z,74.65
2018-02-23T11:25:41.173Z,73.87
2018-02-23T11:28:08.720Z,73.89
2018-02-23T11:30:36.752Z,69.12
2018-02-23T11:33:04.284Z,69.49
2018-02-23T11:35:31.849Z,68.49
2018-02-23T11:37:59.408Z,68.60
2018-02-23T11:40:26.968Z,67.32
2018-02-23T11:42:54.520Z,65.95
2018-02-23T11:45:22.068Z,64.55
2018-02-23T11:47:49.592Z,64.23
2018-02-23T11:50:17.137Z,63.80
2018-02-23T11:52:44.682Z,64.08
2018-02-23T11:55:12.230Z,63.98
2018-02-23T11:57:44.712Z,64.50
2018-02-23T12:00:12.264Z,64.47
2018-02-23T12:02:39.860Z,64.05
2018-02-23T12:05:07.421Z,63.57
2018-02-23T12:07:35.978Z,61.84
2018-02-23T12:10:03.532Z,61.77
2018-02-23T12:12:31.255Z,61.27
2018-02-23T12:14:58.772Z,61.69
2018-02-23T12:17:26.332Z,61.28
2018-02-23T12:19:53.876Z,61.88
2018-02-23T12:22:21.397Z,62.35
2018-02-23T12:24:48.911Z,62.46
2018-02-23T12:27:16.456Z,62.76
2018-02-23T12:29:44.057Z,62.47
2018-02-23T12:32:11.673Z,62.98
2018-02-23T12:34:39.234Z,63.11
2018-02-23T12:37:06.741Z,63.08
2018-02-23T12:39:34.305Z,62.31
2018-02-23T12:42:01.841Z,61.59
2018-02-23T12:44:29.366Z,60.98
2018-02-23T12:46:56.901Z,61.33
2018-02-23T12:49:24.446Z,60.96
2018-02-23T12:51:51.977Z,60.52
2018-02-23T12:54:19.529Z,60.42
2018-02-23T12:56:47.015Z,60.86
2018-02-23T12:59:14.551Z,61.10
2018-02-23T13:01:42.104Z,60.62
2018-02-23T13:04:09.640Z,61.28
2018-02-23T13:06:37.177Z,61.50
2018-02-23T13:09:04.742Z,61.53
2018-02-23T13:11:32.426Z,60.37
2018-02-23T13:14:00.685Z,60.38
2018-02-23T13:16:30.225Z,60.65
2018-02-23T13:18:57.960Z,60.58
2018-02-23T13:21:25.597Z,60.09
2018-02-23T13:23:53.144Z,60.69
2018-02-23T13:26:20.718Z,60.51
2018-02-23T13:28:48.231Z,60.36
2018-02-23T13:31:15.731Z,60.08
2018-02-23T13:33:43.223Z,60.16
2018-02-23T13:36:10.793Z,60.41
2018-02-23T13:38:38.452Z,60.47
2018-02-23T13:41:11.615Z,59.60
2018-02-23T13:43:39.274Z,59.35
2018-02-23T13:46:06.859Z,58.85
2018-02-23T13:48:34.405Z,59.08
2018-02-23T13:51:01.971Z,58.72
2018-02-23T13:53:35.087Z,58.55
2018-02-23T13:56:03.626Z,58.02
2018-02-23T13:58:31.254Z,57.72
2018-02-23T14:00:58.789Z,57.74
2018-02-23T14:03:26.342Z,57.33
2018-02-23T14:05:53.920Z,56.72
2018-02-23T14:08:22.245Z,57.25
2018-02-23T14:10:49.780Z,57.11
2018-02-23T14:13:17.319Z,55.29
2018-02-23T14:15:44.840Z,54.67
2018-02-23T14:18:12.581Z,53.38
2018-02-23T14:20:40.094Z,53.21
2018-02-23T14:23:07.674Z,53.57
2018-02-23T14:25:35.321Z,53.15
2018-02-23T14:28:02.849Z,52.80
2018-02-23T14:30:30.578Z,53.16
2018-02-23T14:32:58.143Z,52.82
2018-02-23T14:35:25.694Z,51.81
2018-02-23T14:37:53.307Z,50.80
2018-02-23T14:40:20.827Z,50.27
2018-02-23T14:42:48.330Z,48.97
2018-02-23T14:45:15.846Z,48.30
2018-02-23T14:47:43.450Z,48.22
2018-02-23T14:50:23.476Z,47.21
2018-02-23T14:52:51.033Z,46.91
2018-02-23T14:55:18.543Z,46.44
2018-02-23T14:57:46.306Z,45.94
2018-02-23T15:00:14.052Z,45.14
2018-02-23T15:02:41.839Z,45.28
2018-02-23T15:05:09.676Z,45.71
2018-02-23T15:07:37.442Z,47.04
2018-02-23T15:10:05.264Z,47.37
2018-02-23T15:12:32.995Z,48.11
2018-02-23T15:15:00.726Z,51.39
2018-02-23T15:17:28.509Z,51.94
2018-02-23T15:19:56.294Z,52.15
2018-02-23T15:22:24.941Z,51.10
2018-02-23T15:24:52.708Z,50.12
2018-02-23T15:27:20.363Z,49.77
2018-02-23T15:29:47.934Z,50.14
2018-02-23T15:35:22.142Z,48.63
2018-02-23T15:37:49.855Z,47.12
2018-02-23T15:40:17.671Z,46.54
2018-02-23T15:42:46.337Z,49.73
2018-02-23T15:45:14.198Z,50.80
2018-02-23T15:50:53.677Z,52.50
2018-02-23T15:53:21.528Z,53.09
2018-02-23T15:55:49.643Z,53.03
2018-02-23T15:58:17.328Z,53.45
2018-02-23T16:00:45.176Z,53.81
2018-02-23T16:03:12.960Z,54.34
2018-02-23T16:05:40.774Z,54.41
2018-02-23T16:08:08.656Z,54.39
2018-02-23T16:10:36.432Z,54.42
2018-02-23T16:13:05.164Z,54.63
2018-02-23T16:15:32.887Z,54.76
2018-02-23T16:18:00.940Z,54.68
2018-02-23T16:20:28.574Z,54.89
2018-02-23T16:22:56.333Z,54.89
2018-02-23T16:25:24.079Z,55.37
2018-02-23T16:27:51.861Z,54.99
2018-02-23T16:30:19.602Z,54.38
2018-02-23T16:32:47.335Z,53.91
2018-02-23T16:35:14.959Z,53.97
2018-02-23T16:37:43.120Z,54.25
2018-02-23T16:40:10.837Z,54.45
2018-02-23T16:42:38.748Z,54.87
2018-02-23T16:45:06.400Z,54.98
2018-02-23T16:47:34.127Z,55.14
2018-02-23T16:50:01.936Z,55.22
2018-02-23T16:52:29.769Z,55.76
2018-02-23T16:54:57.545Z,55.77
2018-02-23T16:57:25.262Z,56.29
2018-02-23T16:59:53.016Z,56.42
2018-02-23T17:02:20.817Z,56.73
2018-02-23T17:04:48.546Z,56.97
2018-02-23T17:07:16.277Z,57.27
2018-02-23T17:09:44.094Z,57.24
2018-02-23T17:12:11.877Z,57.56
2018-02-23T17:14:39.643Z,57.71
2018-02-23T17:17:07.503Z,57.36
2018-02-23T17:19:35.160Z,56.53
2018-02-23T17:22:02.923Z,57.00
2018-02-23T17:24:30.684Z,56.34
2018-02-23T17:26:58.413Z,56.71
2018-02-23T17:29:26.124Z,56.78
2018-02-23T17:31:53.650Z,57.02
2018-02-23T17:34:21.401Z,57.17
2018-02-23T17:36:49.067Z,57.47
2018-02-23T17:39:17.731Z,57.40
2018-02-23T17:41:45.470Z,57.77
2018-02-23T17:44:14.301Z,57.90
2018-02-23T17:46:41.982Z,58.19
2018-02-23T17:49:09.732Z,58.49
2018-02-23T17:51:37.508Z,58.68
2018-02-23T17:54:05.330Z,58.79
2018-02-23T17:56:33.033Z,59.13
2018-02-23T17:59:00.776Z,59.45
2018-02-23T18:01:28.548Z,59.44
2018-02-23T18:03:56.248Z,59.63
2018-02-23T18:06:23.972Z,59.72
2018-02-23T18:08:51.712Z,60.05
2018-02-23T18:11:19.504Z,60.21
2018-02-23T18:13:47.030Z,60.63
2018-02-23T18:16:14.728Z,61.04
2018-02-23T18:18:44.199Z,61.45
2018-02-23T18:21:11.856Z,61.72
2018-02-23T18:23:39.460Z,61.76
2018-02-23T18:26:07.721Z,62.16
2018-02-23T18:28:36.429Z,62.43
2018-02-23T18:31:04.100Z,62.55
2018-02-23T18:33:32.466Z,62.56
2018-02-23T18:52:05.308Z,64.08
2018-02-23T18:54:32.877Z,64.04
2018-02-23T18:57:00.742Z,64.14
2018-02-23T18:59:30.410Z,64.35
2018-02-23T19:01:59.121Z,64.38
2018-02-23T19:04:26.865Z,64.43
2018-02-23T19:06:54.664Z,64.64
2018-02-23T19:09:22.655Z,64.68
2018-02-23T19:11:50.415Z,64.82
2018-02-23T19:14:18.187Z,64.66
2018-02-23T19:16:46.048Z,65.14
2018-02-23T19:19:14.504Z,65.35
2018-02-23T19:21:43.804Z,65.60
2018-02-23T19:24:11.525Z,66.20
2018-02-23T19:26:39.253Z,66.30
2018-02-23T19:29:07.158Z,66.65
2018-02-23T19:31:34.928Z,66.54
2018-02-23T19:34:02.545Z,66.68
2018-02-23T19:36:30.243Z,67.08
2018-02-23T19:38:58.482Z,67.24
2018-02-23T19:41:26.325Z,67.23
2018-02-23T19:43:54.110Z,67.80
2018-02-23T19:46:22.073Z,67.54
2018-02-23T19:48:50.360Z,67.98
2018-02-23T20:04:13.210Z,67.90
2018-02-23T20:06:41.062Z,67.90
2018-02-23T20:09:10.033Z,67.84
2018-02-23T20:11:37.845Z,67.88
2018-02-23T20:14:05.632Z,68.30
2018-02-23T20:16:33.215Z,67.30
2018-02-23T20:19:01.296Z,67.90
2018-02-23T20:21:29.196Z,67.79
2018-02-23T20:23:56.967Z,67.76
2018-02-23T20:26:24.874Z,67.53
2018-02-23T20:28:52.631Z,67.56
2018-02-23T20:31:20.448Z,67.96
2018-02-23T20:33:48.260Z,67.87
2018-02-23T20:36:19.033Z,67.78
2018-02-23T20:38:48.245Z,67.54
2018-02-23T20:41:17.127Z,67.75
2018-02-23T20:43:44.927Z,67.81
2018-02-23T20:46:13.038Z,67.87
2018-02-23T20:48:40.853Z,67.81
2018-02-23T20:51:10.105Z,67.61
2018-02-23T20:53:38.022Z,67.75
2018-02-23T20:56:05.874Z,67.57
2018-02-23T20:58:33.655Z,67.36
2018-02-23T21:01:01.424Z,67.77
2018-02-23T21:03:29.337Z,67.54
2018-02-23T21:05:57.139Z,67.70
2018-02-23T21:08:24.931Z,67.74
2018-02-23T21:10:52.627Z,67.83
2018-02-23T21:13:20.337Z,67.92
2018-02-23T21:15:48.306Z,67.66
2018-02-23T21:18:16.190Z,68.12
2018-02-23T21:20:44.195Z,68.40
2018-02-23T21:23:12.084Z,68.48
2018-02-23T21:25:39.969Z,68.66
2018-02-23T21:28:07.742Z,68.35
2018-02-23T21:30:35.637Z,68.40
2018-02-23T21:33:03.321Z,68.56
2018-02-23T21:35:31.862Z,68.81
2018-02-23T21:37:59.409Z,69.07
2018-02-23T21:40:27.228Z,69.16
2018-02-23T21:42:55.269Z,69.14
2018-02-23T21:45:23.011Z,69.45
2018-02-23T21:47:50.909Z,69.25
2018-02-23T21:50:18.757Z,69.65
2018-02-23T21:52:46.571Z,69.68
2018-02-23T21:55:14.496Z,69.86
2018-02-23T21:57:42.123Z,70.32
2018-02-23T22:00:09.909Z,70.21
2018-02-23T22:02:37.626Z,70.28
2018-02-23T22:05:05.429Z,70.26
2018-02-23T22:07:33.288Z,70.50
2018-02-23T22:10:01.134Z,70.57
2018-02-23T22:12:28.812Z,70.69
2018-02-23T22:14:56.618Z,70.59
2018-02-23T22:17:24.320Z,70.49
2018-02-23T22:19:51.949Z,70.86
2018-02-23T22:22:20.610Z,70.93
2018-02-23T22:24:48.351Z,71.04
2018-02-23T22:27:16.184Z,71.01
2018-02-23T22:29:44.055Z,70.95
2018-02-23T22:32:11.918Z,71.19
2018-02-23T22:34:39.685Z,71.18
2018-02-23T22:37:07.459Z,71.29
2018-02-23T22:39:35.110Z,71.16
2018-02-23T22:42:02.833Z,71.22
2018-02-23T22:44:30.550Z,71.43
2018-02-23T22:46:58.331Z,71.55
2018-02-23T22:49:26.127Z,71.66
2018-02-23T22:51:54.434Z,71.14
2018-02-23T22:54:22.239Z,71.42
2018-02-23T22:56:49.994Z,71.85
2018-02-23T22:59:17.654Z,71.68
2018-02-23T23:01:45.358Z,71.72
2018-02-23T23:04:13.116Z,71.71
2018-02-23T23:06:40.941Z,71.76
2018-02-23T23:09:08.685Z,71.51
2018-02-23T23:11:36.565Z,72.08
2018-02-23T23:14:04.349Z,72.12
2018-02-23T23:16:32.137Z,72.40
2018-02-23T23:18:59.913Z,72.32
2018-02-23T23:21:27.754Z,72.22
2018-02-23T23:23:55.551Z,72.70
2018-02-23T23:26:23.385Z,72.87
2018-02-23T23:28:51.165Z,73.23
2018-02-23T23:31:18.948Z,73.25
2018-02-23T23:33:46.832Z,73.44
2018-02-23T23:36:14.674Z,73.45
2018-02-23T23:38:42.418Z,73.33
2018-02-23T23:41:09.948Z,73.49
2018-02-23T23:43:37.489Z,73.58
2018-02-23T23:46:05.010Z,73.58
2018-02-23T23:48:32.561Z,73.89
2018-02-23T23:51:00.128Z,73.96
2018-02-23T23:53:27.664Z,74.31
2018-02-23T23:55:55.181Z,74.22
2018-02-23T23:58:22.688Z,74.90
